Time;durP1;ratioP1;P1;durP2;ratioP2;P2;SDS_P1;SDS_P2;PMS_P1;PMS_P2;Temp;Humidity;BMP_temperature;BMP_pressure;BME280_temperature;BME280_humidity;BME280_pressure;Samples;Min_cycle;Max_cycle;Signal;HPM_P1;HPM_P2
2022/06/19 00:01:24;;;;;;;7.53;2.10;;;15.40;99.90;;;;;;5105560;28;20073;-91
2022/06/19 00:03:56;;;;;;;8.67;1.87;;;15.30;99.90;;;;;;5082022;28;20050;-89
2022/06/19 00:06:38;;;;;;;9.70;1.85;;;15.30;99.90;;;;;;5102016;28;20043;-88
2022/06/19 00:09:24;;;;;;;8.68;2.05;;;15.30;99.90;;;;;;5096820;28;20035;-89
2022/06/19 00:11:55;;;;;;;6.50;1.60;;;15.40;99.90;;;;;;5077333;28;20070;-90
2022/06/19 00:14:34;;;;;;;5.20;1.38;;;15.40;99.90;;;;;;5076510;28;20293;-90
2022/06/19 00:17:21;;;;;;;8.18;2.50;;;15.40;99.90;;;;;;5096441;27;20047;-87
2022/06/19 00:19:52;;;;;;;5.72;1.58;;;15.40;99.90;;;;;;5101503;27;20085;-88
2022/06/19 00:22:23;;;;;;;6.78;1.73;;;15.30;99.90;;;;;;5091906;27;20115;-89
2022/06/19 00:24:58;;;;;;;8.85;1.90;;;15.30;99.90;;;;;;5107027;28;20047;-88
2022/06/19 00:27:28;;;;;;;9.20;1.92;;;15.30;99.90;;;;;;5114107;27;20468;-89
2022/06/19 00:30:13;;;;;;;6.78;1.73;;;15.30;99.90;;;;;;5097961;27;20074;-89
2022/06/19 00:32:39;;;;;;;7.68;2.25;;;15.30;99.90;;;;;;5096753;27;20050;-89
2022/06/19 00:35:17;;;;;;;8.77;1.63;;;15.30;99.90;;;;;;5102711;27;20047;-90
2022/06/19 00:38:26;;;;;;;9.32;2.00;;;15.30;99.90;;;;;;5116564;27;20050;-89
2022/06/19 00:40:57;;;;;;;8.68;1.88;;;15.30;99.90;;;;;;5105572;27;20039;-88
2022/06/19 00:43:24;;;;;;;7.68;1.85;;;15.30;99.90;;;;;;5114395;27;20047;-89
2022/06/19 00:45:51;;;;;;;8.60;1.90;;;15.40;99.90;;;;;;5101343;27;20475;-87
2022/06/19 00:48:34;;;;;;;7.18;1.98;;;15.40;99.90;;;;;;5096442;27;20592;-90
2022/06/19 00:51:09;;;;;;;7.93;1.85;;;16.20;99.90;;;;;;5113519;27;20147;-89
2022/06/19 00:53:49;;;;;;;9.10;2.00;;;15.50;99.90;;;;;;5119728;27;20130;-88
2022/06/19 00:56:30;;;;;;;9.13;1.85;;;15.50;99.90;;;;;;5096470;27;20055;-89
2022/06/19 00:58:59;;;;;;;7.80;1.75;;;15.50;99.90;;;;;;5094436;27;20058;-89
2022/06/19 01:01:31;;;;;;;6.88;1.77;;;15.50;99.90;;;;;;5095049;27;20051;-88
2022/06/19 01:04:13;;;;;;;8.30;1.90;;;14.70;99.90;;;;;;5113377;27;20058;-89
2022/06/19 01:06:48;;;;;;;7.60;1.77;;;15.50;99.90;;;;;;5095994;27;20051;-89
2022/06/19 01:09:27;;;;;;;;;;;;;;;;;;;;;
2022/06/19 01:12:42;;;;;;;9.75;1.90;;;15.50;99.90;;;;;;5114554;27;20510;-89
2022/06/19 01:15:25;;;;;;;7.80;1.80;;;15.40;99.90;;;;;;5110487;27;20055;-89
2022/06/19 01:17:56;;;;;;;11.60;2.03;;;15.40;99.90;;;;;;5097858;27;20050;-88
2022/06/19 01:20:45;;;;;;;;;;;;;;;;;;;;;
2022/06/19 01:23:44;;;;;;;7.05;1.63;;;15.40;99.90;;;;;;5126884;27;20124;-88
2022/06/19 01:26:20;;;;;;;9.45;1.80;;;15.40;99.90;;;;;;5090650;27;20075;-90
2022/06/19 01:28:59;;;;;;;7.53;1.85;;;15.40;99.90;;;;;;5099367;27;20097;-89
2022/06/19 01:31:41;;;;;;;5.38;1.48;;;15.10;99.90;;;;;;5077274;27;20095;-89
2022/06/19 01:34:48;;;;;;;10.65;2.08;;;14.90;99.90;;;;;;5096117;27;20043;-89
2022/06/19 01:37:30;;;;;;;7.97;1.60;;;15.40;99.90;;;;;;5115038;27;20180;-88
2022/06/19 01:40:30;;;;;;;7.70;1.73;;;15.40;99.90;;;;;;5094380;27;20043;-87
2022/06/19 01:43:14;;;;;;;8.05;1.88;;;15.40;99.90;;;;;;5071070;27;20061;-88
2022/06/19 01:45:56;;;;;;;;;;;;;;;;;;;;;
2022/06/19 01:48:33;;;;;;;8.27;2.53;;;15.40;99.90;;;;;;5092409;27;20066;-88
2022/06/19 01:51:06;;;;;;;5.70;1.70;;;15.40;99.90;;;;;;5095058;27;20035;-88
2022/06/19 01:53:55;;;;;;;7.95;2.15;;;15.30;99.90;;;;;;5097910;27;20112;-88
2022/06/19 01:56:35;;;;;;;;;;;;;;;;;;;;;
2022/06/19 01:59:34;;;;;;;9.05;2.00;;;15.30;99.90;;;;;;5126776;27;20085;-89
2022/06/19 02:02:08;;;;;;;8.38;1.77;;;15.40;99.90;;;;;;5086018;27;20035;-89
2022/06/19 02:04:47;;;;;;;7.40;1.88;;;14.70;99.90;;;;;;5105021;27;20047;-88
2022/06/19 02:07:26;;;;;;;9.20;1.70;;;15.40;99.90;;;;;;5100278;27;20051;-88
2022/06/19 02:09:54;;;;;;;8.25;2.00;;;16.00;99.90;;;;;;5100882;27;20054;-88
2022/06/19 02:12:34;;;;;;;;;;;;;;;;;;;;;
2022/06/19 02:15:05;;;;;;;9.55;2.10;;;15.40;99.90;;;;;;5132506;27;20044;-88
2022/06/19 02:17:42;;;;;;;10.50;2.42;;;15.40;99.90;;;;;;5099238;27;20063;-88
2022/06/19 02:20:10;;;;;;;7.95;1.77;;;15.40;99.90;;;;;;5111320;27;20062;-89
2022/06/19 02:22:38;;;;;;;6.13;1.60;;;15.30;99.90;;;;;;5108507;27;20039;-89
2022/06/19 02:25:08;;;;;;;8.40;1.70;;;15.40;99.90;;;;;;5093950;27;20103;-88
2022/06/19 02:27:40;;;;;;;7.28;2.15;;;15.30;99.90;;;;;;5095870;27;20086;-88
2022/06/19 02:30:13;;;;;;;17.48;2.83;;;15.40;99.90;;;;;;5095813;27;20097;-86
2022/06/19 02:33:02;;;;;;;10.52;2.45;;;15.40;99.90;;;;;;5094182;27;20055;-88
2022/06/19 02:35:33;;;;;;;10.25;2.65;;;15.30;99.90;;;;;;5092810;27;20483;-88
2022/06/19 02:38:27;;;;;;;11.05;2.15;;;15.30;99.90;;;;;;5092492;27;20051;-90
2022/06/19 02:41:42;;;;;;;6.75;1.85;;;14.50;99.90;;;;;;5117440;27;20111;-89
2022/06/19 02:44:05;;;;;;;10.85;2.15;;;15.10;99.90;;;;;;5123786;27;20059;-88
2022/06/19 02:46:36;;;;;;;8.82;2.45;;;15.10;99.90;;;;;;5101714;27;20067;-88
2022/06/19 02:49:10;;;;;;;8.13;2.28;;;15.70;99.90;;;;;;5098764;28;20040;-88
2022/06/19 02:52:00;;;;;;;8.05;2.05;;;15.00;99.90;;;;;;5093902;27;20040;-89
2022/06/19 02:54:36;;;;;;;;;;;;;;;;;;;;;
2022/06/19 02:57:09;;;;;;;10.95;2.35;;;14.90;99.90;;;;;;5112017;27;20086;-91
2022/06/19 03:00:32;;;;;;;;;;;;;;;;;;;;;
2022/06/19 03:03:23;;;;;;;;;;;;;;;;;;;;;
2022/06/19 03:05:52;;;;;;;6.32;1.77;;;14.90;99.90;;;;;;5108610;27;20510;-89
2022/06/19 03:08:23;;;;;;;9.10;2.35;;;14.80;99.90;;;;;;5096940;27;20058;-88
2022/06/19 03:10:55;;;;;;;9.20;2.30;;;14.80;99.90;;;;;;5093559;27;20039;-91
2022/06/19 03:13:22;;;;;;;10.25;2.33;;;14.30;99.90;;;;;;5091755;27;20046;-87
2022/06/19 03:16:08;;;;;;;6.20;1.60;;;14.70;99.90;;;;;;5091963;27;20074;-89
2022/06/19 03:18:45;;;;;;;7.50;1.88;;;15.20;99.90;;;;;;5107200;27;20043;-89
2022/06/19 03:21:20;;;;;;;6.15;1.83;;;14.60;99.90;;;;;;5090068;27;20067;-89
2022/06/19 03:24:12;;;;;;;9.50;2.23;;;14.50;99.90;;;;;;5072492;27;20039;-90
2022/06/19 03:27:09;;;;;;;9.35;2.15;;;14.50;99.90;;;;;;5107623;27;20043;-90
2022/06/19 03:29:48;;;;;;;7.88;1.75;;;14.60;99.90;;;;;;5092165;27;20135;-90
2022/06/19 03:32:22;;;;;;;5.70;1.70;;;14.30;99.90;;;;;;5094148;27;20051;-89
2022/06/19 03:34:48;;;;;;;9.13;1.48;;;13.50;99.90;;;;;;5090122;27;20126;-88
2022/06/19 03:37:14;;;;;;;8.05;1.80;;;14.20;99.90;;;;;;5096641;27;20425;-88
2022/06/19 03:39:50;;;;;;;11.57;2.38;;;14.20;99.90;;;;;;5093840;28;20047;-87
2022/06/19 03:42:25;;;;;;;8.25;1.98;;;14.10;99.90;;;;;;5127784;27;20095;-87
2022/06/19 03:45:04;;;;;;;;;;;;;;;;;;;;;
2022/06/19 03:47:47;;;;;;;5.68;1.55;;;14.00;99.90;;;;;;5133071;28;20030;-89
2022/06/19 03:50:22;;;;;;;6.22;1.40;;;14.00;99.90;;;;;;5094417;27;20058;-89
2022/06/19 03:52:51;;;;;;;9.43;2.53;;;13.90;99.90;;;;;;5098735;27;20050;-89
2022/06/19 03:55:19;;;;;;;10.38;2.00;;;13.90;99.90;;;;;;5060598;27;20054;-89
2022/06/19 03:57:48;;;;;;;6.15;1.30;;;13.80;99.90;;;;;;5091972;27;20070;-88
2022/06/19 04:00:22;;;;;;;4.68;2.08;;;13.80;99.90;;;;;;5098702;27;20043;-88
2022/06/19 04:05:40;;;;;;;8.05;1.80;;;13.60;99.90;;;;;;5106064;27;20047;-87
2022/06/19 04:08:14;;;;;;;6.40;1.10;;;13.70;99.90;;;;;;5083360;27;20042;-89
2022/06/19 04:10:47;;;;;;;4.53;1.27;;;13.60;99.90;;;;;;5081986;27;20050;-89
2022/06/19 04:13:22;;;;;;;6.07;1.98;;;13.40;99.90;;;;;;5115624;27;20062;-90
2022/06/19 04:16:02;;;;;;;6.72;1.50;;;13.60;99.90;;;;;;5100794;27;20057;-88
2022/06/19 04:18:41;;;;;;;7.78;1.80;;;13.60;99.90;;;;;;5093347;27;20461;-88
2022/06/19 04:21:27;;;;;;;7.32;2.00;;;13.60;99.90;;;;;;5098467;27;20546;-89
2022/06/19 04:24:04;;;;;;;;;;;13.60;99.90;;;;;;5107082;27;20479;-87
2022/06/19 04:26:35;;;;;;;9.98;2.38;;;13.60;99.90;;;;;;5097105;27;19920;-90
2022/06/19 04:29:09;;;;;;;10.55;2.15;;;14.60;99.90;;;;;;5099877;27;20043;-89
2022/06/19 04:31:40;;;;;;;8.82;1.98;;;13.60;99.90;;;;;;5116157;28;20043;-89
2022/06/19 04:34:29;;;;;;;10.88;2.00;;;13.60;99.90;;;;;;5084136;27;20059;-89
2022/06/19 04:36:55;;;;;;;6.03;1.85;;;13.50;99.90;;;;;;5098675;27;20546;-88
2022/06/19 04:39:24;;;;;;;8.20;2.15;;;13.50;99.90;;;;;;5099934;27;20385;-90
2022/06/19 04:42:26;;;;;;;6.55;1.40;;;13.50;99.90;;;;;;5093611;27;20137;-90
2022/06/19 04:44:44;;;;;;;7.53;1.95;;;13.50;99.90;;;;;;5112872;27;20039;-89
2022/06/19 04:47:27;;;;;;;6.68;1.70;;;13.50;99.90;;;;;;5099565;27;20105;-90
2022/06/19 04:50:05;;;;;;;10.13;2.00;;;13.60;99.90;;;;;;5091993;28;20496;-88
2022/06/19 04:52:36;;;;;;;8.70;1.80;;;13.60;99.90;;;;;;5075924;28;20461;-90
2022/06/19 04:55:22;;;;;;;6.57;1.98;;;13.60;99.90;;;;;;5073492;28;20044;-90
2022/06/19 04:57:52;;;;;;;6.70;1.63;;;13.70;99.90;;;;;;5078579;28;20044;-90
2022/06/19 05:00:26;;;;;;;6.57;1.58;;;13.00;99.90;;;;;;5079614;28;20098;-89
2022/06/19 05:02:54;;;;;;;6.25;1.50;;;13.60;99.90;;;;;;5076205;28;20474;-87
2022/06/19 05:05:47;;;;;;;8.02;1.83;;;13.60;99.90;;;;;;5062280;28;20043;-89
2022/06/19 05:08:38;;;;;;;6.13;1.40;;;13.50;99.90;;;;;;5068833;28;20044;-89
2022/06/19 05:11:17;;;;;;;7.18;1.70;;;12.70;99.90;;;;;;5075556;28;20051;-89
2022/06/19 05:13:48;;;;;;;8.40;1.50;;;13.20;99.90;;;;;;5072348;28;20040;-88
2022/06/19 05:16:45;;;;;;;7.75;1.45;;;13.70;99.90;;;;;;5074726;28;20059;-88
2022/06/19 05:19:22;;;;;;;5.55;1.55;;;13.70;99.90;;;;;;5075512;28;20040;-88
2022/06/19 05:21:53;;;;;;;9.10;1.65;;;13.70;99.90;;;;;;5073468;28;20052;-88
2022/06/19 05:27:12;;;;;;;7.85;1.55;;;13.70;99.90;;;;;;5093748;28;20076;-89
2022/06/19 05:29:41;;;;;;;6.78;1.80;;;13.60;99.90;;;;;;5087030;28;20036;-89
2022/06/19 05:32:20;;;;;;;;;;;;;;;;;;;;;
2022/06/19 05:35:26;;;;;;;5.45;1.27;;;13.80;99.90;;;;;;5105374;28;20052;-89
2022/06/19 05:38:16;;;;;;;8.50;1.60;;;13.70;99.90;;;;;;5078751;28;20048;-87
2022/06/19 05:41:12;;;;;;;;;;;;;;;;;;;;;
2022/06/19 05:43:59;;;;;;;4.95;1.70;;;13.90;99.90;;;;;;5095973;28;20060;-87
2022/06/19 05:46:59;;;;;;;5.40;1.65;;;13.20;99.90;;;;;;5046681;28;20099;-88
2022/06/19 05:49:32;;;;;;;7.10;1.73;;;13.90;99.90;;;;;;5087630;27;20139;-88
2022/06/19 05:52:16;;;;;;;;;;;;;;;;;;;;;
2022/06/19 05:54:43;;;;;;;4.68;1.20;;;13.40;99.90;;;;;;5114541;27;20122;-89
2022/06/19 05:57:21;;;;;;;5.93;1.48;;;14.00;99.90;;;;;;5092820;27;20100;-88
2022/06/19 05:59:54;;;;;;;7.97;1.70;;;14.10;99.90;;;;;;5090915;27;20067;-88
2022/06/19 06:02:23;;;;;;;10.23;1.75;;;14.30;99.90;;;;;;5077752;27;20104;-88
2022/06/19 06:04:49;;;;;;;5.55;1.88;;;14.20;99.90;;;;;;5094953;27;20074;-88
2022/06/19 06:07:17;;;;;;;4.82;1.30;;;13.30;99.90;;;;;;5095580;27;20139;-88
2022/06/19 06:09:50;;;;;;;7.82;1.48;;;14.70;99.90;;;;;;5080344;27;20035;-89
2022/06/19 06:12:19;;;;;;;3.92;1.42;;;14.40;99.90;;;;;;5099335;27;20078;-88
2022/06/19 06:14:48;;;;;;;7.20;1.42;;;14.90;99.90;;;;;;5112348;27;20039;-89
2022/06/19 06:17:23;;;;;;;4.95;1.40;;;14.50;99.90;;;;;;5115817;27;20614;-90
2022/06/19 06:19:51;;;;;;;7.80;1.92;;;14.60;99.90;;;;;;5097237;27;20104;-89
2022/06/19 06:22:17;;;;;;;4.68;1.30;;;14.20;99.90;;;;;;5105906;27;20047;-88
2022/06/19 06:24:53;;;;;;;6.03;1.42;;;14.90;99.90;;;;;;5091645;27;20174;-88
2022/06/19 06:27:23;;;;;;;7.45;1.52;;;14.90;99.90;;;;;;5099144;27;20493;-89
2022/06/19 06:30:10;;;;;;;7.15;1.42;;;14.50;99.90;;;;;;5098178;27;20090;-90
2022/06/19 06:32:52;;;;;;;;;;;;;;;;;;;;;
2022/06/19 06:35:33;;;;;;;6.20;1.85;;;15.40;99.90;;;;;;5130879;27;20081;-88
2022/06/19 06:38:10;;;;;;;4.05;1.08;;;14.90;99.90;;;;;;5131003;27;20027;-90
2022/06/19 06:40:46;;;;;;;5.93;1.67;;;14.90;99.90;;;;;;5109407;27;20042;-89
2022/06/19 06:43:15;;;;;;;8.88;1.75;;;15.00;99.90;;;;;;5091879;27;20071;-89
2022/06/19 06:45:46;;;;;;;5.47;1.48;;;15.00;99.90;;;;;;5097884;27;20420;-88
2022/06/19 06:48:12;;;;;;;6.35;1.50;;;14.20;99.90;;;;;;5103646;27;20053;-89
2022/06/19 06:50:49;;;;;;;5.20;1.45;;;14.80;99.90;;;;;;5104082;28;20075;-89
2022/06/19 06:53:17;;;;;;;5.82;1.52;;;14.50;99.90;;;;;;5105001;27;20092;-89
2022/06/19 06:55:56;;;;;;;6.43;1.48;;;15.10;99.90;;;;;;5103472;27;20047;-90
2022/06/19 06:58:25;;;;;;;8.05;1.70;;;15.10;99.90;;;;;;5105656;27;20092;-86
2022/06/19 07:00:51;;;;;;;9.82;1.85;;;15.30;99.90;;;;;;5119704;27;20081;-89
2022/06/19 07:03:22;;;;;;;4.28;1.50;;;15.30;99.90;;;;;;5105590;27;20177;-87
2022/06/19 07:05:59;;;;;;;5.43;1.30;;;15.30;99.90;;;;;;5107047;27;20055;-87
2022/06/19 07:08:34;;;;;;;8.82;2.20;;;15.30;99.90;;;;;;5129281;27;20042;-87
2022/06/19 07:11:00;;;;;;;6.60;1.95;;;15.30;99.90;;;;;;5121946;27;20510;-88
2022/06/19 07:13:39;;;;;;;3.58;1.27;;;15.30;99.90;;;;;;5078720;27;20408;-89
2022/06/19 07:16:08;;;;;;;5.10;1.55;;;15.30;99.90;;;;;;5096385;27;20046;-89
2022/06/19 07:18:44;;;;;;;4.05;1.60;;;15.20;99.90;;;;;;5098099;27;20043;-88
2022/06/19 07:21:22;;;;;;;6.40;1.65;;;15.30;99.90;;;;;;5077031;27;20043;-87
2022/06/19 07:23:50;;;;;;;4.90;1.63;;;15.30;99.90;;;;;;5125677;27;20142;-87
2022/06/19 07:26:24;;;;;;;4.95;1.90;;;15.20;99.90;;;;;;5091562;27;20114;-88
2022/06/19 07:31:56;;;;;;;4.53;1.50;;;14.40;99.90;;;;;;5091877;27;20043;-90
2022/06/19 07:34:28;;;;;;;3.22;1.38;;;15.20;99.90;;;;;;5078278;27;20050;-89
2022/06/19 07:37:39;;;;;;;4.90;1.40;;;15.30;99.90;;;;;;5093724;27;20047;-88
2022/06/19 07:40:29;;;;;;;3.95;1.10;;;15.40;99.90;;;;;;5088553;27;20055;-89
2022/06/19 07:43:06;;;;;;;3.67;0.95;;;15.50;99.90;;;;;;5105811;27;20043;-88
2022/06/19 07:45:40;;;;;;;5.55;1.33;;;15.50;99.90;;;;;;5091432;27;20091;-88
2022/06/19 07:51:06;;;;;;;3.28;1.13;;;15.40;99.90;;;;;;5110762;28;20047;-88
2022/06/19 07:53:51;;;;;;;5.18;1.08;;;15.30;99.90;;;;;;5075054;28;20047;-89
2022/06/19 07:56:32;;;;;;;4.85;1.25;;;15.00;99.90;;;;;;5095803;28;20058;-90
2022/06/19 07:59:32;;;;;;;4.57;1.10;;;15.30;99.90;;;;;;5096259;28;20416;-89
2022/06/19 08:02:31;;;;;;;;;;;;;;;;;;;;;
2022/06/19 08:05:12;;;;;;;2.70;0.80;;;16.10;99.90;;;;;;5090330;28;20059;-89
2022/06/19 08:07:57;;;;;;;4.55;1.20;;;15.20;99.90;;;;;;5093467;28;20043;-90
2022/06/19 08:10:45;;;;;;;;;;;;;;;;;;;;;
2022/06/19 08:13:46;;;;;;;4.65;1.30;;;15.30;99.90;;;;;;5108256;28;20107;-89
2022/06/19 08:16:15;;;;;;;4.07;1.15;;;14.90;99.90;;;;;;5072841;28;20062;-89
2022/06/19 08:18:54;;;;;;;2.58;1.27;;;14.60;99.90;;;;;;5112211;28;20043;-89
2022/06/19 08:21:23;;;;;;;4.95;1.20;;;15.30;99.90;;;;;;5076549;28;20051;-89
2022/06/19 08:24:02;;;;;;;5.03;1.20;;;15.50;99.90;;;;;;5092349;28;20077;-88
2022/06/19 08:26:36;;;;;;;3.65;1.27;;;15.50;99.90;;;;;;5077100;28;20055;-88
2022/06/19 08:29:18;;;;;;;3.53;1.10;;;15.70;99.90;;;;;;5094363;28;20051;-89
2022/06/19 08:31:49;;;;;;;4.13;1.02;;;15.70;99.90;;;;;;5109272;28;20453;-88
2022/06/19 08:35:08;;;;;;;;;;;;;;;;;;;;;
2022/06/19 08:41:44;;;;;;;;;;;;;;;;;;;;;
2022/06/19 08:44:37;;;;;;;4.20;0.98;;;16.40;99.90;;;;;;5010683;28;20116;-89
2022/06/19 08:47:41;;;;;;;3.40;1.00;;;16.40;99.90;;;;;;5016107;28;20038;-88
2022/06/19 08:53:50;;;;;;;3.58;1.10;;;16.50;99.90;;;;;;5107300;28;20051;-88
2022/06/19 08:56:50;;;;;;;4.57;1.05;;;16.50;99.90;;;;;;5109610;28;20050;-89
2022/06/19 08:59:43;;;;;;;4.43;1.35;;;16.60;99.90;;;;;;5090131;28;20127;-89
2022/06/19 09:02:31;;;;;;;3.60;1.10;;;16.60;99.90;;;;;;5108849;28;20054;-90
2022/06/19 09:05:44;;;;;;;4.75;1.50;;;16.70;99.90;;;;;;5105089;28;20199;-90
2022/06/19 09:08:28;;;;;;;3.03;1.10;;;16.90;99.90;;;;;;5113223;28;20108;-87
2022/06/19 09:11:34;;;;;;;;;;;;;;;;;;;;;
2022/06/19 09:14:24;;;;;;;4.72;1.23;;;17.30;99.90;;;;;;5108083;28;20052;-90
2022/06/19 09:17:02;;;;;;;5.00;1.20;;;17.50;99.90;;;;;;5108057;28;20048;-88
2022/06/19 09:20:00;;;;;;;5.22;1.30;;;17.60;99.90;;;;;;5095193;28;20100;-89
2022/06/19 09:22:55;;;;;;;3.80;1.13;;;17.90;99.90;;;;;;5096933;28;20044;-88
2022/06/19 09:25:49;;;;;;;3.22;1.08;;;18.20;99.90;;;;;;5111802;28;20070;-89
2022/06/19 09:28:53;;;;;;;3.58;1.10;;;18.50;99.90;;;;;;5091771;28;20052;-87
2022/06/19 09:31:54;;;;;;;;;;;;;;;;;;;;;
2022/06/19 09:34:38;;;;;;;4.20;1.15;;;19.30;99.90;;;;;;5109044;28;20044;-88
2022/06/19 09:37:24;;;;;;;2.70;1.08;;;19.50;99.90;;;;;;5091105;28;20123;-91
2022/06/19 09:41:12;;;;;;;;;;;;;;;;;;;;;
2022/06/19 09:43:39;;;;;;;3.33;1.00;;;20.20;99.90;;;;;;5047157;28;20588;-88
2022/06/19 09:46:50;;;;;;;3.35;1.25;;;21.00;99.90;;;;;;5046233;28;20101;-90
2022/06/19 09:49:30;;;;;;;5.13;1.42;;;20.80;99.90;;;;;;5086077;28;20127;-88
2022/06/19 09:55:19;;;;;;;;;;;;;;;;;;;;;
2022/06/19 09:58:14;;;;;;;5.60;1.70;;;21.30;99.90;;;;;;5113463;27;20051;-88
2022/06/19 10:00:50;;;;;;;4.20;1.13;;;21.50;99.90;;;;;;5094073;27;20074;-88
2022/06/19 10:03:40;;;;;;;3.72;1.33;;;20.70;99.90;;;;;;5100483;27;20055;-91
2022/06/19 10:06:47;;;;;;;4.72;1.25;;;21.40;99.90;;;;;;5112586;27;20047;-88
2022/06/19 10:09:22;;;;;;;3.28;1.05;;;21.50;99.90;;;;;;5085882;27;20055;-89
2022/06/19 10:12:15;;;;;;;3.20;1.33;;;21.70;99.90;;;;;;5092821;27;20074;-88
2022/06/19 10:14:56;;;;;;;4.47;1.40;;;22.00;99.90;;;;;;5092555;27;20050;-90
2022/06/19 10:17:56;;;;;;;5.32;1.30;;;21.90;99.90;;;;;;5095359;27;20051;-88
2022/06/19 10:20:34;;;;;;;4.75;1.10;;;22.20;99.90;;;;;;5088708;27;20066;-83
2022/06/19 10:23:20;;;;;;;5.15;1.35;;;22.30;99.90;;;;;;5093405;27;20035;-83
2022/06/19 10:25:46;;;;;;;;;;;22.30;99.90;;;;;;5090513;27;20070;-79
2022/06/19 10:28:29;;;;;;;4.55;1.40;;;22.80;99.80;;;;;;5094201;27;20142;-90
2022/06/19 10:31:11;;;;;;;2.05;1.10;;;23.10;99.70;;;;;;5106849;27;20055;-89
2022/06/19 10:33:48;;;;;;;3.85;1.35;;;23.40;99.20;;;;;;5093482;27;20059;-88
2022/06/19 10:37:05;;;;;;;3.58;1.00;;;23.70;99.10;;;;;;5090013;27;20053;-89
2022/06/19 10:39:49;;;;;;;5.15;1.17;;;23.80;97.10;;;;;;5108024;27;20119;-88
2022/06/19 10:42:53;;;;;;;4.10;1.15;;;23.70;97.70;;;;;;5087193;27;20052;-90
2022/06/19 10:45:35;;;;;;;3.42;1.20;;;23.70;96.70;;;;;;5086634;27;20081;-89
2022/06/19 10:48:18;;;;;;;5.57;1.25;;;23.60;97.30;;;;;;5087623;27;20043;-87
2022/06/19 10:51:08;;;;;;;;;;;23.60;97.10;;;;;;5088528;27;20059;-89
2022/06/19 10:53:59;;;;;;;4.03;1.15;;;23.30;96.40;;;;;;5090447;27;19927;-89
2022/06/19 10:56:33;;;;;;;4.53;1.10;;;23.10;96.50;;;;;;5092678;27;20399;-88
2022/06/19 10:59:09;;;;;;;7.15;1.50;;;22.90;97.10;;;;;;5092233;27;20054;-88
2022/06/19 11:04:39;;;;;;;6.10;1.25;;;22.70;97.10;;;;;;5111184;27;20076;-90
2022/06/19 11:07:27;;;;;;;;;;;;;;;;;;;;;
2022/06/19 11:10:06;;;;;;;5.00;1.27;;;22.60;95.80;;;;;;5111301;27;20043;-88
2022/06/19 11:12:42;;;;;;;3.67;1.02;;;22.40;96.00;;;;;;5113110;27;20050;-90
2022/06/19 11:15:19;;;;;;;4.47;1.25;;;22.30;96.60;;;;;;5101666;27;20388;-88
2022/06/19 11:18:14;;;;;;;3.85;1.17;;;22.10;96.50;;;;;;5088078;28;20404;-89
2022/06/19 11:21:01;;;;;;;4.63;1.40;;;22.00;96.70;;;;;;5074978;27;20061;-88
2022/06/19 11:23:38;;;;;;;3.00;1.10;;;22.20;96.90;;;;;;5110563;27;20050;-89
2022/06/19 11:26:18;;;;;;;4.03;1.30;;;21.40;97.10;;;;;;5092866;27;20365;-89
2022/06/19 11:28:58;;;;;;;4.90;1.42;;;21.50;97.00;;;;;;5093989;27;20043;-89
2022/06/19 11:31:39;;;;;;;4.07;1.10;;;21.20;97.40;;;;;;5122251;27;20043;-87
2022/06/19 11:37:20;;;;;;;3.70;1.17;;;21.10;97.50;;;;;;5110335;27;20058;-88
2022/06/19 11:40:18;;;;;;;4.57;1.33;;;20.50;97.70;;;;;;5089345;28;20043;-89
2022/06/19 11:43:02;;;;;;;4.90;1.30;;;20.90;98.00;;;;;;5117325;27;20080;-87
2022/06/19 11:45:35;;;;;;;5.28;1.40;;;21.00;98.40;;;;;;5096522;28;20072;-88
2022/06/19 11:48:16;;;;;;;3.13;1.13;;;21.10;98.20;;;;;;5089910;27;20040;-89
2022/06/19 11:51:23;;;;;;;6.80;1.55;;;21.10;98.20;;;;;;5112869;28;20058;-89
2022/06/19 11:54:12;;;;;;;;;;;21.10;97.80;;;;;;5097623;28;20137;-88
2022/06/19 11:56:46;;;;;;;5.18;1.40;;;20.80;98.20;;;;;;5090964;28;20019;-90
2022/06/19 11:59:45;;;;;;;;;;;;;;;;;;;;;
2022/06/19 12:02:40;;;;;;;6.57;1.50;;;20.90;99.00;;;;;;5108000;28;20047;-90
2022/06/19 12:05:33;;;;;;;6.53;1.70;;;21.00;99.20;;;;;;5077876;28;20134;-88
2022/06/19 12:08:22;;;;;;;7.13;1.73;;;21.00;99.10;;;;;;5110101;28;20491;-89
2022/06/19 12:11:10;;;;;;;6.53;2.00;;;21.20;98.60;;;;;;5090187;27;20099;-89
2022/06/19 12:13:42;;;;;;;8.63;2.05;;;21.50;98.60;;;;;;5080672;27;20038;-89
2022/06/19 12:16:21;;;;;;;5.88;1.80;;;22.00;98.60;;;;;;5096330;27;20080;-89
2022/06/19 12:18:54;;;;;;;;;;;22.20;98.70;;;;;;5114967;27;20039;-90
2022/06/19 12:21:58;;;;;;;7.50;1.95;;;22.40;98.50;;;;;;5098838;27;19927;-90
2022/06/19 12:24:58;;;;;;;;;;;;;;;;;;;;;
2022/06/19 12:27:35;;;;;;;6.82;1.30;;;22.40;98.40;;;;;;5068328;27;20154;-89
2022/06/19 12:30:08;;;;;;;6.40;2.17;;;22.40;98.70;;;;;;5095450;27;20040;-89
2022/06/19 12:32:44;;;;;;;7.35;1.70;;;22.70;98.50;;;;;;5096546;27;20075;-90
2022/06/19 12:35:44;;;;;;;;;;;;;;;;;;;;;
2022/06/19 12:38:19;;;;;;;5.03;1.20;;;22.50;98.10;;;;;;5116433;27;20472;-90
2022/06/19 12:41:06;;;;;;;;;;;;;;;;;;;;;
2022/06/19 12:46:53;;;;;;;5.95;1.55;;;22.00;98.60;;;;;;5099820;27;20147;-88
2022/06/19 12:49:52;;;;;;;4.72;1.30;;;22.10;98.30;;;;;;5107111;27;20047;-89
2022/06/19 12:52:52;;;;;;;;;;;;;;;;;;;;;
2022/06/19 12:55:38;;;;;;;5.80;1.50;;;22.60;97.60;;;;;;5111354;27;20043;-89
2022/06/19 12:58:31;;;;;;;5.18;1.60;;;23.10;96.50;;;;;;5095290;27;20046;-90
2022/06/19 13:01:15;;;;;;;6.47;1.83;;;22.90;96.40;;;;;;5094684;27;20046;-90
2022/06/19 13:04:21;;;;;;;6.80;1.67;;;23.10;96.70;;;;;;5116948;27;20054;-91
2022/06/19 13:07:02;;;;;;;4.18;1.13;;;23.10;96.40;;;;;;5094254;27;20510;-90
2022/06/19 13:10:01;;;;;;;7.53;2.22;;;23.40;95.80;;;;;;5111789;27;20088;-90
2022/06/19 13:12:58;;;;;;;4.30;1.45;;;23.40;96.00;;;;;;5092301;27;20052;-91
2022/06/19 13:15:42;;;;;;;8.38;1.80;;;23.40;96.10;;;;;;5073584;27;20342;-90
2022/06/19 13:18:36;;;;;;;6.22;1.73;;;23.40;95.40;;;;;;5090404;27;20416;-90
2022/06/19 13:21:50;;;;;;;5.28;1.50;;;23.80;95.30;;;;;;5106163;27;20051;-89
2022/06/19 13:24:50;;;;;;;5.75;1.80;;;24.00;94.70;;;;;;5078586;27;20462;-90
2022/06/19 13:28:11;;;;;;;;;;;;;;;;;;;;;
2022/06/19 13:31:03;;;;;;;5.25;1.40;;;23.90;94.10;;;;;;5113808;27;20052;-91
2022/06/19 13:33:42;;;;;;;4.65;1.60;;;23.90;95.30;;;;;;5100634;27;20055;-91
2022/06/19 13:36:56;;;;;;;;;;;;;;;;;;;;;
2022/06/19 13:39:44;;;;;;;6.38;1.77;;;24.00;94.80;;;;;;5090515;27;20097;-89
2022/06/19 13:42:31;;;;;;;5.65;1.73;;;24.40;94.00;;;;;;5097804;27;20087;-91
2022/06/19 13:45:29;;;;;;;5.47;1.70;;;23.50;93.40;;;;;;5096836;27;20519;-89
2022/06/19 13:48:05;;;;;;;4.97;1.63;;;24.00;94.40;;;;;;5094395;27;20081;-89
2022/06/19 13:51:04;;;;;;;8.05;1.63;;;23.90;94.50;;;;;;5114725;27;20048;-89
2022/06/19 13:54:12;;;;;;;;;;;;;;;;;;;;;
2022/06/19 13:57:45;;;;;;;5.40;1.77;;;23.80;94.30;;;;;;5110699;27;20070;-90
2022/06/19 14:00:49;;;;;;;6.82;1.60;;;23.30;94.20;;;;;;5066558;28;20076;-90
2022/06/19 14:06:49;;;;;;;4.93;1.73;;;22.40;93.90;;;;;;5105381;27;20051;-90
2022/06/19 14:09:50;;;;;;;5.20;1.60;;;22.00;95.20;;;;;;5095330;27;20039;-91
2022/06/19 14:12:43;;;;;;;5.43;1.48;;;22.00;95.60;;;;;;5092270;27;20047;-90
2022/06/19 14:15:48;;;;;;;6.45;1.65;;;21.50;95.50;;;;;;5114532;27;20044;-91
2022/06/19 14:18:41;;;;;;;8.77;1.48;;;21.40;95.70;;;;;;5099006;27;20047;-90
2022/06/19 14:21:46;;;;;;;4.78;1.42;;;21.50;95.40;;;;;;5106604;27;20059;-90
2022/06/19 14:24:27;;;;;;;5.13;1.48;;;21.60;94.80;;;;;;5095385;27;20492;-90
2022/06/19 14:26:56;;;;;;;5.75;1.38;;;21.50;94.60;;;;;;5096376;27;20051;-89
2022/06/19 14:29:38;;;;;;;6.70;1.55;;;21.50;94.70;;;;;;5093009;27;20040;-90
2022/06/19 14:32:08;;;;;;;4.95;1.50;;;21.40;94.80;;;;;;5091548;27;20385;-92
2022/06/19 14:35:03;;;;;;;6.75;1.20;;;21.40;95.20;;;;;;5093663;28;20126;-90
2022/06/19 14:37:58;;;;;;;5.75;1.80;;;21.40;95.00;;;;;;5095439;27;20078;-90
2022/06/19 14:40:29;;;;;;;3.90;1.40;;;21.50;95.50;;;;;;5088528;28;20047;-90
2022/06/19 14:43:28;;;;;;;;;;;;;;;;;;;;;
2022/06/19 14:46:03;;;;;;;6.18;1.63;;;21.60;95.40;;;;;;5110691;27;20450;-91
2022/06/19 14:49:16;;;;;;;4.32;1.20;;;21.20;94.70;;;;;;5116314;27;20043;-90
2022/06/19 14:52:28;;;;;;;7.70;1.85;;;20.60;94.40;;;;;;5116578;27;20047;-91
2022/06/19 14:55:08;;;;;;;5.82;1.38;;;21.30;94.70;;;;;;5091716;28;20135;-91
2022/06/19 14:57:47;;;;;;;5.15;1.65;;;21.80;94.50;;;;;;5097538;27;20484;-91
2022/06/19 15:00:19;;;;;;;4.90;1.77;;;21.90;94.50;;;;;;5101776;27;20067;-90
2022/06/19 15:03:05;;;;;;;;;;;;;;;;;;;;;
2022/06/19 15:05:37;;;;;;;8.73;1.60;;;22.10;94.10;;;;;;5115049;27;20630;-90
2022/06/19 15:08:28;;;;;;;4.68;1.30;;;21.80;93.70;;;;;;5090449;27;20492;-90
2022/06/19 15:11:53;;;;;;;;;;;;;;;;;;;;;
2022/06/19 15:14:24;;;;;;;5.22;1.33;;;21.50;93.10;;;;;;5092377;27;20066;-92
2022/06/19 15:17:29;;;;;;;3.83;1.30;;;21.30;93.90;;;;;;5089262;27;20130;-91
2022/06/19 15:20:18;;;;;;;6.03;1.45;;;21.00;92.50;;;;;;5093365;27;20913;-91
2022/06/19 15:23:14;;;;;;;;;;;;;;;;;;;;;
2022/06/19 15:25:53;;;;;;;4.28;1.30;;;20.60;94.40;;;;;;5094832;27;20051;-90
2022/06/19 15:29:06;;;;;;;5.13;1.83;;;20.50;94.80;;;;;;5109876;27;20050;-90